Terminal Aerodrome Forecast
Issued by NWS Louisville, KY

Home | Current Version | Previous Version | Graphics & Text | Print | Product List | Glossary On
Versions: 1 2 3 4 5 6 7 8 9 10 11 12 13 14 15 16 17 18 19 20
000
FTUS43 KLMK 011700
TAFBWG
TAF
KBWG 011723Z 0118/0218 17005KT P6SM FEW060
     FM020000 00000KT P6SM FEW070 SCT250
     FM021500 19008KT P6SM FEW040 BKN250=

USA.gov is the U.S. government's official web portal to all federal, state and local government web resources and services.